createdAt,value
2018-10-02T00:02:12.793Z,101123.34
2018-10-02T00:04:40.284Z,101125.91
2018-10-02T00:07:07.760Z,101124.23
2018-10-02T00:09:34.423Z,101130.72
2018-10-02T00:12:07.353Z,101131.17
2018-10-02T00:14:34.968Z,101137.98
2018-10-02T00:17:03.382Z,101132.88
2018-10-02T00:19:30.993Z,101130.87
2018-10-02T00:21:58.664Z,101133.91
2018-10-02T00:24:26.302Z,101130.27
2018-10-02T00:26:53.828Z,101132.44
2018-10-02T00:29:21.487Z,101128.94
2018-10-02T00:31:49.099Z,101129.92
2018-10-02T00:34:16.789Z,101130.27
2018-10-02T00:36:44.322Z,101123.73
2018-10-02T00:39:11.776Z,101118.69
2018-10-02T00:41:39.379Z,101130.27
2018-10-02T00:44:07.128Z,101124.72
2018-10-02T00:46:34.588Z,101124.38
2018-10-02T00:49:02.210Z,101122.84
2018-10-02T00:51:29.865Z,101126.09
2018-10-02T00:53:56.504Z,101123.54
2018-10-02T00:56:23.141Z,101121.52
2018-10-02T00:58:49.805Z,101122.35
2018-10-02T01:01:16.625Z,101124.72
2018-10-02T01:03:43.260Z,101128.59
2018-10-02T01:06:09.892Z,101131.84
2018-10-02T01:08:37.702Z,101126.64
2018-10-02T01:11:17.800Z,101133.31
2018-10-02T01:13:44.488Z,101137.71
2018-10-02T01:16:11.127Z,101131.78
2018-10-02T01:18:38.752Z,101128.88
2018-10-02T01:21:07.312Z,101129.48
2018-10-02T01:23:34.880Z,101133.80
2018-10-02T01:26:02.473Z,101136.00
2018-10-02T01:28:29.169Z,101136.20
2018-10-02T01:30:55.812Z,101135.52
2018-10-02T01:33:23.438Z,101128.36
2018-10-02T01:35:50.072Z,101129.47
2018-10-02T01:38:16.704Z,101137.33
2018-10-02T01:40:43.400Z,101133.80
2018-10-02T01:43:10.064Z,101135.30
2018-10-02T01:45:38.629Z,101141.31
2018-10-02T01:48:05.285Z,101128.33
2018-10-02T01:50:31.921Z,101136.39
2018-10-02T01:52:58.580Z,101137.85
2018-10-02T01:55:25.216Z,101137.95
2018-10-02T01:57:51.912Z,101142.39
2018-10-02T02:00:18.560Z,101139.98
2018-10-02T02:02:45.221Z,101141.52
2018-10-02T02:05:11.891Z,101141.76
2018-10-02T02:07:39.383Z,101145.38
2018-10-02T02:10:08.008Z,101137.08
2018-10-02T02:12:36.664Z,101139.00
2018-10-02T02:15:04.355Z,101142.25
2018-10-02T02:17:31.919Z,101139.98
2018-10-02T02:19:59.528Z,101143.09
2018-10-02T02:22:27.342Z,101140.81
2018-10-02T02:24:54.939Z,101146.92
2018-10-02T02:27:22.484Z,101152.95
2018-10-02T02:29:50.396Z,101150.83
2018-10-02T02:32:17.264Z,101154.81
2018-10-02T02:34:44.569Z,101162.98
2018-10-02T02:37:12.060Z,101157.67
2018-10-02T02:39:39.464Z,101160.56
2018-10-02T02:42:08.565Z,101162.63
2018-10-02T02:44:36.760Z,101160.81
2018-10-02T02:47:09.945Z,101160.08
2018-10-02T02:49:43.045Z,101165.55
2018-10-02T02:52:11.089Z,101163.98
2018-10-02T02:54:37.736Z,101163.73
2018-10-02T02:57:05.240Z,101168.31
2018-10-02T02:59:32.769Z,101160.95
2018-10-02T03:02:01.649Z,101164.44
2018-10-02T03:04:29.282Z,101171.07
2018-10-02T03:06:56.907Z,101168.91
2018-10-02T03:09:23.544Z,101169.05
2018-10-02T03:11:50.201Z,101166.74
2018-10-02T03:14:17.813Z,101162.91
2018-10-02T03:16:45.473Z,101158.65
2018-10-02T03:19:12.136Z,101169.53
2018-10-02T03:21:38.797Z,101164.23
2018-10-02T03:24:06.809Z,101162.91
2018-10-02T03:26:33.472Z,101165.80
2018-10-02T03:29:01.503Z,101166.04
2018-10-02T03:31:29.020Z,101168.20
2018-10-02T03:33:55.753Z,101169.53
2018-10-02T03:36:23.359Z,101170.13
2018-10-02T03:38:50.025Z,101168.31
2018-10-02T03:41:16.679Z,101153.48
2018-10-02T03:43:43.353Z,101157.70
2018-10-02T03:46:10.072Z,101156.97
2018-10-02T03:48:37.909Z,101160.25
2018-10-02T03:51:04.740Z,101155.81
2018-10-02T03:53:32.536Z,101153.52
2018-10-02T03:56:00.136Z,101161.96
2018-10-02T03:58:28.419Z,101159.03
2018-10-02T04:00:56.046Z,101151.36
2018-10-02T04:03:23.539Z,101157.98
2018-10-02T04:05:51.237Z,101157.88
2018-10-02T04:08:17.929Z,101160.63
2018-10-02T04:10:45.629Z,101158.47
2018-10-02T04:13:13.380Z,101160.77
2018-10-02T04:15:40.915Z,101157.62
2018-10-02T04:18:08.404Z,101163.45
2018-10-02T04:20:36.822Z,101162.23
2018-10-02T04:23:04.420Z,101160.07
2018-10-02T04:25:32.033Z,101156.20
2018-10-02T04:27:59.729Z,101159.94
2018-10-02T04:30:27.191Z,101159.69
2018-10-02T04:32:54.348Z,101162.41
2018-10-02T04:35:21.161Z,101164.96
2018-10-02T04:37:48.808Z,101163.18
2018-10-02T04:40:16.456Z,101159.34
2018-10-02T04:42:44.194Z,101155.87
2018-10-02T04:45:11.812Z,101166.80
2018-10-02T04:47:38.465Z,101167.53
2018-10-02T04:50:07.585Z,101169.53
2018-10-02T04:52:35.216Z,101175.70
2018-10-02T04:55:03.287Z,101177.03
2018-10-02T04:57:32.012Z,101173.92
2018-10-02T04:59:58.732Z,101171.38
2018-10-02T05:02:26.297Z,101176.68
2018-10-02T05:04:52.897Z,101170.40
2018-10-02T05:07:20.462Z,101181.78
2018-10-02T05:09:47.237Z,101179.98
2018-10-02T05:12:14.864Z,101181.17
2018-10-02T05:14:41.523Z,101186.80
2018-10-02T05:17:09.189Z,101186.09
2018-10-02T05:19:37.658Z,101188.50
2018-10-02T05:22:06.285Z,101192.09
2018-10-02T05:24:33.989Z,101191.40
2018-10-02T05:27:01.505Z,101190.45
2018-10-02T05:29:29.184Z,101198.89
2018-10-02T05:31:56.816Z,101199.11
2018-10-02T05:34:24.341Z,101200.95
2018-10-02T05:36:51.965Z,101203.33
2018-10-02T05:39:19.680Z,101212.36
2018-10-02T05:41:46.333Z,101205.52
2018-10-02T05:44:14.145Z,101198.62
2018-10-02T05:46:41.654Z,101205.47
2018-10-02T05:49:09.328Z,101197.78
2018-10-02T05:51:37.794Z,101200.30
2018-10-02T05:54:04.489Z,101205.87
2018-10-02T05:56:32.074Z,101202.27
2018-10-02T05:58:59.582Z,101204.19
2018-10-02T06:01:26.285Z,101201.78
2018-10-02T06:03:53.923Z,101207.67
2018-10-02T06:06:20.592Z,101210.33
2018-10-02T06:08:47.276Z,101213.69
2018-10-02T06:11:14.945Z,101211.77
2018-10-02T06:13:42.471Z,101222.50
2018-10-02T06:16:09.977Z,101225.62
2018-10-02T06:18:37.490Z,101224.87
2018-10-02T06:21:05.097Z,101227.30
2018-10-02T06:23:32.629Z,101233.06
2018-10-02T06:26:01.442Z,101244.52
2018-10-02T06:28:28.112Z,101240.77
2018-10-02T06:30:55.661Z,101245.56
2018-10-02T06:33:22.536Z,101240.28
2018-10-02T06:35:49.173Z,101233.55
2018-10-02T06:38:16.806Z,101237.04
2018-10-02T06:40:44.385Z,101242.34
2018-10-02T06:43:12.174Z,101231.36
2018-10-02T06:45:40.273Z,101231.01
2018-10-02T06:48:07.900Z,101231.23
2018-10-02T06:50:34.698Z,101237.26
2018-10-02T06:53:02.129Z,101235.94
2018-10-02T06:55:28.809Z,101235.45
2018-10-02T06:57:56.461Z,101234.61
2018-10-02T07:00:24.337Z,101238.67
2018-10-02T07:02:51.961Z,101235.72
2018-10-02T07:05:20.966Z,101231.63
2018-10-02T07:07:48.566Z,101228.60
2018-10-02T07:10:16.142Z,101224.00
2018-10-02T07:12:43.898Z,101223.52
2018-10-02T07:15:11.442Z,101216.88
2018-10-02T07:17:38.956Z,101217.99
2018-10-02T07:20:07.600Z,101213.88
2018-10-02T07:22:35.178Z,101208.82
2018-10-02T07:25:02.650Z,101208.23
2018-10-02T07:27:31.512Z,101200.02
2018-10-02T07:29:58.845Z,101209.69
2018-10-02T07:32:26.517Z,101209.69
2018-10-02T07:34:54.131Z,101193.75
2018-10-02T07:37:21.732Z,101205.19
2018-10-02T07:39:48.434Z,101202.06
2018-10-02T07:42:16.059Z,101204.36
2018-10-02T07:44:42.795Z,101202.02
2018-10-02T07:47:10.321Z,101199.02
2018-10-02T07:49:38.548Z,101205.23
2018-10-02T07:52:07.601Z,101204.30
2018-10-02T07:54:35.107Z,101201.03
2018-10-02T07:57:01.868Z,101207.88
2018-10-02T07:59:29.276Z,101206.79
2018-10-02T08:01:55.942Z,101216.61
2018-10-02T08:04:22.621Z,101205.89
2018-10-02T08:06:50.244Z,101206.11
2018-10-02T08:09:17.861Z,101204.89
2018-10-02T08:11:44.775Z,101206.42
2018-10-02T08:14:11.365Z,101198.22
2018-10-02T08:16:38.522Z,101201.16
2018-10-02T08:19:05.173Z,101191.41
2018-10-02T08:21:32.537Z,101202.20
2018-10-02T08:23:59.255Z,101198.12
2018-10-02T08:26:25.905Z,101204.75
2018-10-02T08:28:52.597Z,101190.65
2018-10-02T08:31:19.289Z,101189.18
2018-10-02T08:33:45.944Z,101185.90
2018-10-02T08:36:12.691Z,101189.59
2018-10-02T08:38:39.387Z,101185.54
2018-10-02T08:41:07.622Z,101172.00
2018-10-02T08:43:35.340Z,101176.11
2018-10-02T08:46:03.318Z,101168.16
2018-10-02T08:48:31.770Z,101154.75
2018-10-02T08:50:59.392Z,101156.21
2018-10-02T08:53:26.020Z,101149.23
2018-10-02T08:55:53.742Z,101149.78
2018-10-02T08:58:21.391Z,101132.78
2018-10-02T09:00:49.200Z,101138.92
2018-10-02T09:03:15.934Z,101137.84
2018-10-02T09:05:43.353Z,101134.71
2018-10-02T09:08:11.008Z,101135.68
2018-10-02T09:10:38.520Z,101129.14
2018-10-02T09:13:07.558Z,101130.52
2018-10-02T09:15:35.231Z,101119.33
2018-10-02T09:18:01.917Z,101112.80
2018-10-02T09:20:29.502Z,101112.30
2018-10-02T09:22:57.180Z,101115.94
2018-10-02T09:25:24.883Z,101118.80
2018-10-02T09:27:52.414Z,101123.53
2018-10-02T09:30:25.684Z,101123.88
2018-10-02T09:32:58.737Z,101103.80
2018-10-02T09:35:31.761Z,101099.82
2018-10-02T09:38:04.916Z,101105.44
2018-10-02T09:40:37.989Z,101100.99
2018-10-02T09:43:11.494Z,101103.74
2018-10-02T09:45:39.109Z,101098.33
2018-10-02T09:48:10.570Z,101101.86
2018-10-02T09:50:38.396Z,101105.41
2018-10-02T09:53:07.213Z,101100.84
2018-10-02T09:55:33.945Z,101100.63
2018-10-02T09:58:01.786Z,101091.59
2018-10-02T10:00:34.330Z,101090.48
2018-10-02T10:03:01.979Z,101082.14
2018-10-02T10:05:29.422Z,101082.41
2018-10-02T10:07:57.046Z,101082.94
2018-10-02T10:10:25.696Z,101089.17
2018-10-02T10:12:52.370Z,101083.05
2018-10-02T10:17:45.993Z,101080.48
2018-10-02T10:20:12.649Z,101072.41
2018-10-02T10:22:40.164Z,101082.22
2018-10-02T10:25:07.579Z,101077.19
2018-10-02T10:27:34.269Z,101081.17
2018-10-02T10:30:02.378Z,101082.06
2018-10-02T10:32:29.054Z,101075.02
2018-10-02T10:34:55.770Z,101060.82
2018-10-02T10:37:22.477Z,101062.11
2018-10-02T10:39:49.184Z,101058.64
2018-10-02T10:42:15.837Z,101054.20
2018-10-02T10:44:42.489Z,101049.59
2018-10-02T10:47:09.220Z,101043.17
2018-10-02T10:49:37.414Z,101035.62
2018-10-02T10:52:04.885Z,101026.42
2018-10-02T10:54:32.541Z,101027.05
2018-10-02T10:56:59.197Z,101022.58
2018-10-02T10:59:26.808Z,101019.22
2018-10-02T11:01:54.341Z,101010.50
2018-10-02T11:04:22.109Z,100999.17
2018-10-02T11:06:49.770Z,100998.77
2018-10-02T11:09:16.442Z,101004.56
2018-10-02T11:11:44.065Z,100997.19
2018-10-02T11:14:10.740Z,100994.09
2018-10-02T11:16:38.270Z,100995.19
2018-10-02T11:19:07.001Z,100984.45
2018-10-02T11:21:34.661Z,100993.80
2018-10-02T11:24:02.268Z,100982.16
2018-10-02T11:26:29.816Z,100987.09
2018-10-02T11:28:57.442Z,100981.92
2018-10-02T11:31:24.190Z,100989.39
2018-10-02T11:33:51.848Z,100988.99
2018-10-02T11:36:18.637Z,100983.83
2018-10-02T11:38:46.338Z,100979.70
2018-10-02T11:41:13.797Z,100974.72
2018-10-02T11:43:41.628Z,100969.23
2018-10-02T11:46:09.201Z,100974.97
2018-10-02T11:48:36.692Z,100970.36
2018-10-02T11:51:04.309Z,100966.03
2018-10-02T11:53:32.776Z,100955.77
2018-10-02T11:56:00.210Z,100958.19
2018-10-02T11:58:27.812Z,100941.78
2018-10-02T12:00:55.348Z,100941.03
2018-10-02T12:03:23.058Z,100939.96
2018-10-02T12:05:49.768Z,100930.83
2018-10-02T12:08:16.441Z,100923.33
2018-10-02T12:10:43.994Z,100914.84
2018-10-02T12:13:10.659Z,100909.53
2018-10-02T12:15:38.307Z,100907.05
2018-10-02T12:18:07.156Z,100900.83
2018-10-02T12:20:34.664Z,100894.95
2018-10-02T12:23:02.376Z,100891.53
2018-10-02T12:25:29.974Z,100889.42
2018-10-02T12:27:57.478Z,100880.36
2018-10-02T12:30:25.137Z,100879.44
2018-10-02T12:35:19.818Z,100872.50
2018-10-02T12:37:47.313Z,100868.47
2018-10-02T12:40:14.797Z,100860.79
2018-10-02T12:42:42.285Z,100867.66
2018-10-02T12:45:09.837Z,100859.61
2018-10-02T12:47:37.469Z,100853.09
2018-10-02T12:50:04.930Z,100853.17
2018-10-02T12:52:32.629Z,100856.73
2018-10-02T12:55:00.188Z,100837.59
2018-10-02T12:57:27.718Z,100836.08
2018-10-02T12:59:55.224Z,100829.70
2018-10-02T13:02:22.717Z,100817.66
2018-10-02T13:04:50.414Z,100818.64
2018-10-02T13:07:17.870Z,100807.98
2018-10-02T13:09:45.489Z,100804.80
2018-10-02T13:12:13.123Z,100795.44
2018-10-02T13:14:39.821Z,100791.88
2018-10-02T13:17:07.362Z,100783.66
2018-10-02T13:19:34.905Z,100784.91
2018-10-02T13:22:02.581Z,100775.05
2018-10-02T13:24:30.297Z,100775.54
2018-10-02T13:26:57.958Z,100778.27
2018-10-02T13:29:25.500Z,100770.05
2018-10-02T13:31:53.077Z,100770.47
2018-10-02T13:34:20.718Z,100761.83
2018-10-02T13:36:48.405Z,100749.47
2018-10-02T13:39:16.044Z,100751.56
2018-10-02T13:41:43.680Z,100753.50
2018-10-02T13:44:11.234Z,100758.87
2018-10-02T13:46:38.808Z,100758.61
2018-10-02T13:49:07.060Z,100752.47
2018-10-02T13:51:34.649Z,100751.56
2018-10-02T13:54:02.487Z,100753.90
2018-10-02T13:56:30.065Z,100743.62
2018-10-02T13:58:56.720Z,100747.23
2018-10-02T14:01:23.499Z,100744.14
2018-10-02T14:03:50.136Z,100752.17
2018-10-02T14:06:17.370Z,100743.80
2018-10-02T14:08:44.017Z,100744.86
2018-10-02T14:11:10.695Z,100740.73
2018-10-02T14:13:37.457Z,100738.72
2018-10-02T14:16:04.122Z,100732.99
2018-10-02T14:18:32.830Z,100735.16
2018-10-02T14:20:59.494Z,100724.66
2018-10-02T14:23:26.161Z,100728.52
2018-10-02T14:25:52.833Z,100725.16
2018-10-02T14:28:19.485Z,100723.91
2018-10-02T14:30:46.229Z,100715.75
2018-10-02T14:33:12.877Z,100716.93
2018-10-02T14:35:39.542Z,100704.31
2018-10-02T14:38:07.402Z,100700.03
2018-10-02T14:40:34.094Z,100697.95
2018-10-02T14:43:01.546Z,100694.58
2018-10-02T14:45:28.204Z,100687.00
2018-10-02T14:47:54.867Z,100669.12
2018-10-02T14:50:22.385Z,100675.59
2018-10-02T14:52:50.084Z,100679.23
2018-10-02T14:55:17.628Z,100672.91
2018-10-02T14:57:45.181Z,100660.11
2018-10-02T15:00:12.714Z,100659.27
2018-10-02T15:02:40.225Z,100649.72
2018-10-02T15:05:07.953Z,100644.98
2018-10-02T15:07:36.179Z,100645.67
2018-10-02T15:10:02.880Z,100649.72
2018-10-02T15:12:30.408Z,100637.85
2018-10-02T15:14:57.173Z,100644.19
2018-10-02T15:17:24.719Z,100649.03
2018-10-02T15:19:51.404Z,100640.37
2018-10-02T15:22:19.040Z,100639.20
2018-10-02T15:24:46.673Z,100633.24
2018-10-02T15:27:13.398Z,100640.28
2018-10-02T15:29:41.044Z,100642.45
2018-10-02T15:32:08.771Z,100632.20
2018-10-02T15:34:37.501Z,100622.52
2018-10-02T15:37:04.763Z,100623.41
2018-10-02T15:39:33.818Z,100618.81
2018-10-02T15:42:02.616Z,100623.63
2018-10-02T15:44:30.320Z,100616.77
2018-10-02T15:46:57.872Z,100610.70
2018-10-02T15:49:25.524Z,100613.42
2018-10-02T15:51:53.004Z,100607.06
2018-10-02T15:54:20.673Z,100606.86
2018-10-02T15:56:48.184Z,100595.82
2018-10-02T15:59:15.845Z,100592.41
2018-10-02T16:01:43.501Z,100583.73
2018-10-02T16:04:11.176Z,100584.31
2018-10-02T16:06:38.433Z,100583.73
2018-10-02T16:09:06.754Z,100571.73
2018-10-02T16:11:34.401Z,100576.91
2018-10-02T16:14:02.874Z,100575.31
2018-10-02T16:16:30.424Z,100564.78
2018-10-02T16:18:57.906Z,100559.05
2018-10-02T16:21:25.568Z,100565.34
2018-10-02T16:23:53.037Z,100566.33
2018-10-02T16:26:20.713Z,100567.08
2018-10-02T16:28:48.421Z,100559.27
2018-10-02T16:31:16.019Z,100574.39
2018-10-02T16:33:43.689Z,100565.59
2018-10-02T16:36:11.124Z,100572.53
2018-10-02T16:38:38.853Z,100573.06
2018-10-02T16:41:06.868Z,100585.91
2018-10-02T16:43:34.394Z,100590.32
2018-10-02T16:46:03.065Z,100586.22
2018-10-02T16:48:31.737Z,100593.95
2018-10-02T16:50:59.413Z,100582.31
2018-10-02T16:53:27.044Z,100581.59
2018-10-02T16:55:54.755Z,100592.48
2018-10-02T16:58:22.414Z,100586.48
2018-10-02T17:00:50.061Z,100588.78
2018-10-02T17:03:16.761Z,100592.61
2018-10-02T17:05:43.481Z,100586.54
2018-10-02T17:08:10.154Z,100579.69
2018-10-02T17:10:37.417Z,100579.69
2018-10-02T17:13:05.121Z,100586.75
2018-10-02T17:15:32.753Z,100571.27
2018-10-02T17:18:00.291Z,100575.59
2018-10-02T17:20:26.985Z,100570.28
2018-10-02T17:22:53.714Z,100563.16
2018-10-02T17:25:20.385Z,100557.02
2018-10-02T17:27:47.956Z,100569.86
2018-10-02T17:30:14.694Z,100567.81
2018-10-02T17:32:42.133Z,100570.96
2018-10-02T17:35:08.873Z,100561.44
2018-10-02T17:37:36.638Z,100569.39
2018-10-02T17:40:04.326Z,100567.35
2018-10-02T17:42:32.029Z,100551.88
2018-10-02T17:44:58.761Z,100556.25
2018-10-02T17:47:25.431Z,100558.07
2018-10-02T17:49:52.111Z,100556.74
2018-10-02T17:52:18.781Z,100554.16
2018-10-02T17:54:45.508Z,100555.30
2018-10-02T17:57:12.214Z,100553.32
2018-10-02T17:59:39.801Z,100559.77
2018-10-02T18:02:07.273Z,100569.33
2018-10-02T18:04:33.933Z,100566.73
2018-10-02T18:07:00.632Z,100573.70
2018-10-02T18:09:27.290Z,100567.16
2018-10-02T18:11:54.872Z,100575.68
2018-10-02T18:14:22.415Z,100572.44
2018-10-02T18:16:50.029Z,100570.69
2018-10-02T18:19:16.713Z,100571.95
2018-10-02T18:21:43.365Z,100573.19
2018-10-02T18:24:10.917Z,100574.27
2018-10-02T18:26:38.468Z,100572.53
2018-10-02T18:29:07.071Z,100573.64
2018-10-02T18:31:34.572Z,100591.93
2018-10-02T18:34:03.097Z,100574.05
2018-10-02T18:36:29.760Z,100576.58
2018-10-02T18:38:56.579Z,100572.78
2018-10-02T18:41:23.234Z,100575.53
2018-10-02T18:43:50.740Z,100572.29
2018-10-02T18:46:17.396Z,100582.06
2018-10-02T18:48:45.172Z,100586.75
2018-10-02T18:51:11.850Z,100578.09
2018-10-02T18:53:39.522Z,100562.82
2018-10-02T18:56:07.435Z,100576.08
2018-10-02T18:58:34.929Z,100586.31
2018-10-02T19:01:03.897Z,100585.15
2018-10-02T19:03:32.130Z,100586.48
2018-10-02T19:05:59.812Z,100592.77
2018-10-02T19:08:33.058Z,100584.88
2018-10-02T19:11:05.241Z,100588.88
2018-10-02T19:13:32.862Z,100588.56
2018-10-02T19:16:07.315Z,100589.48
2018-10-02T19:18:34.037Z,100592.20
2018-10-02T19:21:02.912Z,100591.02
2018-10-02T19:23:30.576Z,100580.95
2018-10-02T19:26:04.606Z,100594.13
2018-10-02T19:28:33.768Z,100593.30
2018-10-02T19:31:06.956Z,100588.48
2018-10-02T19:33:33.617Z,100588.42
2018-10-02T19:36:00.335Z,100580.63
2018-10-02T19:38:34.626Z,100578.16
2018-10-02T19:41:03.079Z,100585.34
2018-10-02T19:43:30.601Z,100579.63
2018-10-02T19:46:03.926Z,100586.78
2018-10-02T19:48:32.503Z,100573.06
2018-10-02T19:51:04.885Z,100573.34
2018-10-02T19:53:32.593Z,100580.03
2018-10-02T19:56:00.351Z,100568.09
2018-10-02T19:58:28.042Z,100569.42
2018-10-02T20:00:55.485Z,100561.89
2018-10-02T20:03:23.052Z,100563.72
2018-10-02T20:05:50.647Z,100560.72
2018-10-02T20:08:17.314Z,100568.19
2018-10-02T20:10:45.012Z,100578.21
2018-10-02T20:13:12.703Z,100577.50
2018-10-02T20:15:50.522Z,100572.75
2018-10-02T20:18:17.178Z,100572.10
2018-10-02T20:20:44.805Z,100580.06
2018-10-02T20:23:11.473Z,100574.60
2018-10-02T20:25:38.133Z,100567.60
2018-10-02T20:28:05.155Z,100566.89
2018-10-02T20:30:33.542Z,100570.59
2018-10-02T20:33:02.013Z,100566.89
2018-10-02T20:35:28.712Z,100570.93
2018-10-02T20:37:55.440Z,100568.68
2018-10-02T20:40:23.113Z,100563.13
2018-10-02T20:42:50.805Z,100566.03
2018-10-02T20:45:18.450Z,100570.47
2018-10-02T20:47:46.073Z,100566.92
2018-10-02T20:50:13.737Z,100576.98
2018-10-02T20:52:41.357Z,100575.31
2018-10-02T20:55:08.046Z,100576.83
2018-10-02T20:57:36.669Z,100576.48
2018-10-02T21:00:03.386Z,100575.31
2018-10-02T21:02:32.270Z,100586.94
2018-10-02T21:04:59.765Z,100588.98
2018-10-02T21:07:27.410Z,100584.84
2018-10-02T21:09:55.109Z,100593.80
2018-10-02T21:12:21.765Z,100599.16
2018-10-02T21:14:49.257Z,100603.08
2018-10-02T21:17:15.946Z,100605.67
2018-10-02T21:19:42.630Z,100600.86
2018-10-02T21:22:09.357Z,100593.30
2018-10-02T21:24:38.422Z,100596.54
2018-10-02T21:27:05.080Z,100586.52
2018-10-02T21:29:32.713Z,100603.63
2018-10-02T21:31:59.414Z,100605.82
2018-10-02T21:34:26.905Z,100589.91
2018-10-02T21:36:53.629Z,100594.13
2018-10-02T21:39:20.281Z,100587.50
2018-10-02T21:41:46.922Z,100580.65
2018-10-02T21:44:13.575Z,100578.37
2018-10-02T21:46:40.253Z,100571.67
2018-10-02T21:49:08.101Z,100575.72
2018-10-02T21:51:34.777Z,100561.59
2018-10-02T21:54:03.861Z,100568.77
2018-10-02T21:56:32.925Z,100567.81
2018-10-02T21:58:59.622Z,100566.12
2018-10-02T22:01:30.290Z,100565.10
2018-10-02T22:03:56.992Z,100568.92
2018-10-02T22:06:23.646Z,100564.21
2018-10-02T22:08:50.293Z,100563.06
2018-10-02T22:11:17.038Z,100558.99
2018-10-02T22:13:43.739Z,100560.62
2018-10-02T22:16:10.436Z,100553.84
2018-10-02T22:18:37.988Z,100559.30
2018-10-02T22:21:04.767Z,100556.28
2018-10-02T22:23:32.252Z,100551.34
2018-10-02T22:25:58.898Z,100554.43
2018-10-02T22:28:26.621Z,100554.61
2018-10-02T22:30:54.249Z,100546.66
2018-10-02T22:33:20.939Z,100559.09
2018-10-02T22:35:48.489Z,100560.91
2018-10-02T22:38:15.125Z,100559.48
2018-10-02T22:40:42.879Z,100567.36
2018-10-02T22:43:09.554Z,100565.23
2018-10-02T22:45:38.606Z,100562.88
2018-10-02T22:48:07.645Z,100563.19
2018-10-02T22:50:36.325Z,100560.13
2018-10-02T22:53:03.949Z,100559.05
2018-10-02T22:55:32.921Z,100564.57
2018-10-02T22:58:00.528Z,100563.95
2018-10-02T23:00:28.069Z,100565.16
2018-10-02T23:02:55.464Z,100552.97
2018-10-02T23:05:23.097Z,100557.23
2018-10-02T23:07:50.409Z,100557.94
2018-10-02T23:10:18.010Z,100558.53
2018-10-02T23:12:45.638Z,100557.48
2018-10-02T23:15:12.373Z,100553.90
2018-10-02T23:17:40.120Z,100568.21
2018-10-02T23:20:07.780Z,100559.20
2018-10-02T23:22:36.412Z,100556.61
2018-10-02T23:25:04.037Z,100548.59
2018-10-02T23:27:30.725Z,100554.63
2018-10-02T23:29:58.225Z,100556.34
2018-10-02T23:32:25.915Z,100558.98
2018-10-02T23:34:53.462Z,100558.03
2018-10-02T23:37:21.065Z,100558.81
2018-10-02T23:39:48.606Z,100556.59
2018-10-02T23:42:15.309Z,100549.86
2018-10-02T23:44:42.993Z,100562.14
2018-10-02T23:47:10.697Z,100566.27
2018-10-02T23:49:38.269Z,100574.97
2018-10-02T23:56:59.888Z,100581.05
2018-10-02T23:59:27.390Z,100581.81
